createdAt,value
2023-03-30T00:02:10.115Z,11.00
2023-03-30T00:04:42.466Z,10.80
2023-03-30T00:07:11.071Z,10.70
2023-03-30T00:09:41.899Z,10.90
2023-03-30T00:12:09.912Z,10.00
2023-03-30T00:14:37.975Z,10.60
2023-03-30T00:17:06.416Z,9.30
2023-03-30T00:19:37.077Z,9.80
2023-03-30T00:22:06.013Z,10.30
2023-03-30T00:24:34.085Z,10.90
2023-03-30T00:27:02.739Z,9.60
2023-03-30T00:29:30.858Z,9.60
2023-03-30T00:32:00.691Z,9.30
2023-03-30T00:34:28.994Z,9.60
2023-03-30T00:36:57.577Z,9.50
2023-03-30T00:39:26.122Z,9.40
2023-03-30T00:41:54.221Z,8.60
2023-03-30T00:44:58.776Z,9.50
2023-03-30T00:47:28.415Z,8.50
2023-03-30T00:49:58.052Z,9.80
2023-03-30T00:52:27.902Z,8.80
2023-03-30T00:54:57.641Z,9.30
2023-03-30T00:57:28.034Z,9.70
2023-03-30T00:59:56.975Z,9.70
2023-03-30T01:02:25.351Z,9.10
2023-03-30T01:04:57.034Z,9.60
2023-03-30T01:07:26.179Z,9.40
2023-03-30T01:09:55.421Z,9.30
2023-03-30T01:12:23.615Z,9.00
2023-03-30T01:14:53.035Z,9.20
2023-03-30T01:17:29.092Z,9.40
2023-03-30T01:20:33.339Z,9.30
2023-03-30T01:23:30.445Z,8.20
2023-03-30T01:26:48.314Z,7.70
2023-03-30T01:29:36.020Z,8.00
2023-03-30T01:32:44.586Z,10.00
2023-03-30T01:35:43.442Z,9.60
2023-03-30T01:38:52.592Z,8.90
2023-03-30T01:41:31.096Z,8.80
2023-03-30T01:44:05.861Z,7.30
2023-03-30T01:46:40.176Z,9.10
2023-03-30T01:49:12.986Z,8.70
2023-03-30T01:51:47.648Z,9.30
2023-03-30T01:54:20.562Z,7.90
2023-03-30T01:56:51.616Z,8.30
2023-03-30T01:59:25.824Z,9.30
2023-03-30T02:02:02.021Z,8.80
2023-03-30T02:04:35.920Z,9.10
2023-03-30T02:07:09.584Z,8.70
2023-03-30T02:09:40.409Z,8.80
2023-03-30T02:12:10.626Z,8.50
2023-03-30T02:14:41.563Z,9.80
2023-03-30T02:17:15.547Z,9.50
2023-03-30T02:19:45.920Z,9.40
2023-03-30T02:22:15.713Z,8.30
2023-03-30T02:24:45.630Z,8.30
2023-03-30T02:27:14.096Z,9.30
2023-03-30T02:29:44.521Z,8.80
2023-03-30T02:32:19.039Z,10.10
2023-03-30T02:35:04.505Z,8.00
2023-03-30T02:38:00.986Z,8.70
2023-03-30T02:40:44.366Z,9.10
2023-03-30T02:43:26.146Z,8.70
2023-03-30T02:46:09.354Z,10.50
2023-03-30T02:48:44.898Z,9.70
2023-03-30T02:51:28.888Z,9.50
2023-03-30T02:54:26.616Z,9.50
2023-03-30T02:57:18.736Z,8.90
2023-03-30T02:59:56.567Z,9.30
2023-03-30T03:02:29.811Z,9.20
2023-03-30T03:05:07.278Z,9.10
2023-03-30T03:07:49.320Z,9.60
2023-03-30T03:10:17.709Z,9.20
2023-03-30T03:12:46.542Z,9.60
2023-03-30T03:15:16.152Z,9.10
2023-03-30T03:17:58.293Z,9.30
2023-03-30T03:20:29.906Z,7.50
2023-03-30T03:22:58.210Z,9.00
2023-03-30T03:25:26.424Z,8.20
2023-03-30T03:28:04.948Z,9.40
2023-03-30T03:30:46.483Z,9.60
2023-03-30T03:33:19.959Z,9.90
2023-03-30T03:35:59.475Z,9.40
2023-03-30T03:38:28.309Z,9.20
2023-03-30T03:40:58.738Z,9.10
2023-03-30T03:43:27.183Z,11.00
2023-03-30T03:45:55.866Z,9.90
2023-03-30T03:48:24.713Z,8.90
2023-03-30T03:50:55.376Z,9.60
2023-03-30T03:53:25.342Z,9.80
2023-03-30T03:55:55.834Z,10.30
2023-03-30T03:58:25.020Z,9.80
2023-03-30T04:00:58.886Z,11.60
2023-03-30T04:03:26.940Z,12.60
2023-03-30T04:05:57.566Z,10.90
2023-03-30T04:08:30.293Z,10.30
2023-03-30T04:11:08.184Z,10.30
2023-03-30T04:13:55.390Z,10.70
2023-03-30T04:16:38.699Z,9.90
2023-03-30T04:19:27.159Z,9.10
2023-03-30T04:22:05.845Z,9.20
2023-03-30T04:25:14.517Z,9.40
2023-03-30T04:28:12.210Z,10.60
2023-03-30T04:31:10.441Z,10.30
2023-03-30T04:33:57.335Z,9.80
2023-03-30T04:36:43.018Z,10.80
2023-03-30T04:39:38.092Z,12.00
2023-03-30T04:42:29.568Z,10.90
2023-03-30T04:45:25.651Z,10.30
2023-03-30T04:48:25.119Z,10.30
2023-03-30T04:51:13.623Z,9.90
2023-03-30T04:54:01.822Z,9.80
2023-03-30T04:57:05.226Z,9.60
2023-03-30T05:00:07.368Z,9.80
2023-03-30T05:03:01.730Z,9.20
2023-03-30T05:05:57.083Z,10.80
2023-03-30T05:08:51.024Z,9.60
2023-03-30T05:11:22.778Z,11.20
2023-03-30T05:14:00.442Z,11.30
2023-03-30T05:16:56.539Z,11.30
2023-03-30T05:19:43.208Z,10.50
2023-03-30T05:22:34.785Z,10.50
2023-03-30T05:25:21.482Z,10.60
2023-03-30T05:27:57.603Z,13.90
2023-03-30T05:30:39.966Z,10.70
2023-03-30T05:33:26.857Z,9.80
2023-03-30T05:36:17.902Z,10.30
2023-03-30T05:39:10.892Z,11.60
2023-03-30T05:42:02.260Z,10.80
2023-03-30T05:44:39.771Z,10.30
2023-03-30T05:47:39.699Z,10.40
2023-03-30T05:50:43.639Z,10.40
2023-03-30T05:53:20.937Z,8.90
2023-03-30T05:56:02.812Z,11.40
2023-03-30T06:01:37.835Z,11.90
2023-03-30T06:04:09.390Z,12.10
2023-03-30T06:06:37.986Z,13.00
2023-03-30T06:09:10.669Z,11.60
2023-03-30T06:11:38.997Z,13.50
2023-03-30T06:14:21.569Z,13.10
2023-03-30T06:17:15.328Z,12.00
2023-03-30T06:19:45.600Z,13.20
2023-03-30T06:22:14.387Z,11.60
2023-03-30T06:24:54.189Z,12.30
2023-03-30T06:27:22.456Z,11.20
2023-03-30T06:29:52.310Z,11.70
2023-03-30T06:32:20.795Z,9.40
2023-03-30T06:35:10.787Z,11.20
2023-03-30T06:37:39.856Z,13.00
2023-03-30T06:40:12.929Z,10.90
2023-03-30T06:42:43.487Z,12.70
2023-03-30T06:45:21.297Z,11.40
2023-03-30T06:48:13.950Z,11.00
2023-03-30T06:50:53.893Z,11.00
2023-03-30T06:53:41.298Z,11.80
2023-03-30T06:56:22.360Z,12.20
2023-03-30T06:59:07.680Z,12.10
2023-03-30T07:01:45.662Z,10.90
2023-03-30T07:04:49.655Z,12.20
2023-03-30T07:07:25.053Z,10.30
2023-03-30T07:09:53.158Z,13.00
2023-03-30T07:12:21.646Z,11.30
2023-03-30T07:14:50.166Z,10.90
2023-03-30T07:17:18.706Z,12.30
2023-03-30T07:19:46.870Z,12.60
2023-03-30T07:22:15.088Z,11.10
2023-03-30T07:24:44.340Z,11.90
2023-03-30T07:27:12.534Z,11.60
2023-03-30T07:29:41.846Z,12.10
2023-03-30T07:32:10.143Z,12.60
2023-03-30T07:34:38.286Z,12.00
2023-03-30T07:37:07.654Z,11.70
2023-03-30T07:39:36.520Z,10.80
2023-03-30T07:42:06.701Z,11.70
2023-03-30T07:44:37.180Z,10.40
2023-03-30T07:47:07.745Z,12.20
2023-03-30T07:49:38.057Z,11.40
2023-03-30T07:52:06.709Z,11.00
2023-03-30T07:54:43.740Z,11.90
2023-03-30T07:57:19.039Z,11.40
2023-03-30T07:59:47.197Z,11.80
2023-03-30T08:02:23.870Z,11.00
2023-03-30T08:04:54.480Z,10.50
2023-03-30T08:07:36.126Z,12.30
2023-03-30T08:10:12.409Z,9.60
2023-03-30T08:12:41.622Z,11.00
2023-03-30T08:15:11.622Z,11.00
2023-03-30T08:17:39.632Z,12.20
2023-03-30T08:20:10.919Z,11.40
2023-03-30T08:22:41.997Z,13.80
2023-03-30T08:25:11.325Z,16.00
2023-03-30T08:27:39.926Z,13.60
2023-03-30T08:30:12.665Z,11.30
2023-03-30T08:32:41.148Z,11.90
2023-03-30T08:35:11.317Z,11.30
2023-03-30T08:37:39.460Z,11.70
2023-03-30T08:40:12.383Z,10.60
2023-03-30T08:43:03.612Z,11.50
2023-03-30T08:45:39.717Z,11.50
2023-03-30T08:48:17.488Z,11.90
2023-03-30T08:50:53.461Z,10.50
2023-03-30T08:53:21.681Z,12.00
2023-03-30T08:55:56.743Z,10.70
2023-03-30T08:58:32.350Z,11.30
2023-03-30T09:01:12.347Z,11.90
2023-03-30T09:03:50.095Z,13.00
2023-03-30T09:06:25.790Z,10.60
2023-03-30T09:08:54.049Z,12.30
2023-03-30T09:11:32.448Z,12.20
2023-03-30T09:14:04.722Z,11.00
2023-03-30T09:16:40.231Z,10.80
2023-03-30T09:19:14.479Z,13.20
2023-03-30T09:21:42.937Z,14.70
2023-03-30T09:24:15.502Z,13.40
2023-03-30T09:26:50.129Z,14.50
2023-03-30T09:29:22.560Z,12.70
2023-03-30T09:31:55.720Z,12.60
2023-03-30T09:34:27.552Z,14.10
2023-03-30T09:37:00.795Z,12.10
2023-03-30T09:39:32.316Z,11.60
2023-03-30T09:42:13.465Z,11.10
2023-03-30T09:44:47.108Z,12.00
2023-03-30T09:47:23.902Z,12.30
2023-03-30T09:49:57.554Z,12.00
2023-03-30T09:52:27.301Z,11.60
2023-03-30T09:54:56.614Z,12.30
2023-03-30T09:57:27.586Z,13.70
2023-03-30T10:00:26.853Z,13.10
2023-03-30T10:03:24.896Z,12.40
2023-03-30T10:06:04.165Z,10.50
2023-03-30T10:08:32.801Z,12.10
2023-03-30T10:11:05.681Z,11.80
2023-03-30T10:13:37.137Z,16.30
2023-03-30T10:16:08.871Z,12.10
2023-03-30T10:18:42.298Z,14.50
2023-03-30T10:21:19.039Z,13.30
2023-03-30T10:23:58.907Z,10.90
2023-03-30T10:26:29.964Z,12.40
2023-03-30T10:29:02.893Z,12.10
2023-03-30T10:31:33.349Z,11.40
2023-03-30T10:34:03.939Z,9.00
2023-03-30T10:36:34.835Z,10.40
2023-03-30T10:39:11.790Z,9.30
2023-03-30T10:41:41.381Z,10.10
2023-03-30T10:44:22.405Z,9.80
2023-03-30T10:46:53.488Z,10.80
2023-03-30T10:49:38.818Z,10.80
2023-03-30T10:52:14.183Z,10.00
2023-03-30T10:54:46.940Z,10.60
2023-03-30T10:57:17.882Z,9.90
2023-03-30T11:00:14.938Z,9.30
2023-03-30T11:02:54.409Z,10.70
2023-03-30T11:05:31.967Z,9.30
2023-03-30T11:08:04.027Z,9.70
2023-03-30T11:10:37.984Z,13.40
2023-03-30T11:13:08.178Z,9.90
2023-03-30T11:15:43.296Z,10.40
2023-03-30T11:18:17.574Z,12.10
2023-03-30T11:20:51.310Z,10.40
2023-03-30T11:23:55.730Z,9.30
2023-03-30T11:26:35.763Z,10.50
2023-03-30T11:29:12.866Z,11.00
2023-03-30T11:32:03.522Z,10.00
2023-03-30T11:34:55.551Z,9.70
2023-03-30T11:37:32.723Z,11.30
2023-03-30T11:40:13.425Z,10.70
2023-03-30T11:42:53.230Z,10.90
2023-03-30T11:46:22.996Z,10.30
2023-03-30T11:49:15.826Z,9.70
2023-03-30T11:52:05.128Z,10.00
2023-03-30T11:55:06.809Z,10.10
2023-03-30T11:57:40.452Z,10.30
2023-03-30T12:01:07.022Z,10.30
2023-03-30T12:03:42.181Z,10.60
2023-03-30T12:06:27.933Z,10.60
2023-03-30T12:09:22.737Z,9.10
2023-03-30T12:11:57.558Z,9.20
2023-03-30T12:14:40.775Z,10.00
2023-03-30T12:17:28.888Z,10.20
2023-03-30T12:20:05.714Z,9.10
2023-03-30T12:22:41.140Z,10.60
2023-03-30T12:25:28.495Z,9.90
2023-03-30T12:28:10.753Z,7.70
2023-03-30T12:30:45.478Z,9.90
2023-03-30T12:33:18.953Z,10.30
2023-03-30T12:36:01.638Z,9.20
2023-03-30T12:38:38.500Z,10.60
2023-03-30T12:41:17.834Z,9.90
2023-03-30T12:44:02.384Z,10.40
2023-03-30T12:46:42.236Z,9.20
2023-03-30T12:49:26.716Z,10.30
2023-03-30T12:52:10.040Z,10.10
2023-03-30T12:55:11.698Z,8.70
2023-03-30T12:58:06.968Z,10.10
2023-03-30T13:01:03.186Z,9.10
2023-03-30T13:03:38.718Z,8.00
2023-03-30T13:06:13.811Z,9.10
2023-03-30T13:08:42.565Z,7.90
2023-03-30T13:11:15.440Z,8.70
2023-03-30T13:14:25.681Z,8.20
2023-03-30T13:17:18.893Z,8.30
2023-03-30T13:20:10.426Z,8.00
2023-03-30T13:23:22.607Z,7.90
2023-03-30T13:26:02.576Z,8.30
2023-03-30T13:28:54.843Z,8.40
2023-03-30T13:31:35.085Z,7.40
2023-03-30T13:34:14.621Z,7.50
2023-03-30T13:36:52.853Z,8.00
2023-03-30T13:39:29.174Z,7.60
2023-03-30T13:42:13.782Z,7.20
2023-03-30T13:44:57.119Z,7.00
2023-03-30T13:47:53.195Z,7.90
2023-03-30T13:50:26.860Z,7.50
2023-03-30T13:52:58.778Z,6.70
2023-03-30T13:55:45.760Z,6.70
2023-03-30T13:58:18.097Z,6.60
2023-03-30T14:00:50.025Z,6.50
2023-03-30T14:03:40.877Z,6.40
2023-03-30T14:06:17.240Z,4.40
2023-03-30T14:08:47.969Z,4.30
2023-03-30T14:11:20.422Z,4.20
2023-03-30T14:13:52.171Z,4.40
2023-03-30T14:16:25.724Z,4.70
2023-03-30T14:19:07.637Z,5.80
2023-03-30T14:21:38.088Z,5.10
2023-03-30T14:24:09.931Z,4.90
2023-03-30T14:26:40.868Z,4.60
2023-03-30T14:29:24.646Z,5.20
2023-03-30T14:32:09.249Z,5.10
2023-03-30T14:34:39.487Z,6.00
2023-03-30T14:37:11.426Z,5.20
2023-03-30T14:39:43.095Z,5.70
2023-03-30T14:42:18.794Z,5.50
2023-03-30T14:44:49.237Z,5.10
2023-03-30T14:47:21.575Z,8.40
2023-03-30T14:49:51.547Z,5.50
2023-03-30T14:52:21.804Z,4.90
2023-03-30T14:55:05.295Z,5.70
2023-03-30T14:57:38.606Z,6.40
2023-03-30T15:00:20.256Z,6.90
2023-03-30T15:02:51.421Z,6.00
2023-03-30T15:05:20.955Z,6.50
2023-03-30T15:07:50.588Z,5.70
2023-03-30T15:10:24.634Z,5.80
2023-03-30T15:12:55.634Z,5.80
2023-03-30T15:15:27.951Z,5.90
2023-03-30T15:17:56.700Z,5.50
2023-03-30T15:20:27.883Z,6.20
2023-03-30T15:22:56.728Z,5.80
2023-03-30T15:25:31.223Z,6.90
2023-03-30T15:28:03.279Z,6.00
2023-03-30T15:30:35.143Z,6.30
2023-03-30T15:33:03.365Z,5.80
2023-03-30T15:35:33.300Z,5.80
2023-03-30T15:38:02.945Z,17.40
2023-03-30T15:40:37.516Z,6.40
2023-03-30T15:43:18.219Z,6.20
2023-03-30T15:45:50.559Z,5.80
2023-03-30T15:48:21.714Z,7.10
2023-03-30T15:50:55.931Z,6.10
2023-03-30T15:53:36.073Z,7.70
2023-03-30T15:56:07.597Z,6.50
2023-03-30T15:58:35.639Z,6.40
2023-03-30T16:01:04.384Z,6.30
2023-03-30T16:03:39.637Z,5.60
2023-03-30T16:06:12.939Z,16.00
2023-03-30T16:08:43.711Z,8.10
2023-03-30T16:11:14.414Z,7.30
2023-03-30T16:13:44.903Z,6.70
2023-03-30T16:16:13.698Z,7.30
2023-03-30T16:18:42.940Z,6.80
2023-03-30T16:21:27.002Z,7.10
2023-03-30T16:23:54.974Z,7.20
2023-03-30T16:26:23.036Z,6.50
2023-03-30T16:28:54.875Z,6.60
2023-03-30T16:31:24.734Z,7.10
2023-03-30T16:33:53.118Z,6.80
2023-03-30T16:36:27.201Z,9.40
2023-03-30T16:38:56.635Z,7.20
2023-03-30T16:41:25.527Z,7.70
2023-03-30T16:43:53.676Z,6.90
2023-03-30T16:46:22.321Z,8.40
2023-03-30T16:48:57.233Z,7.70
2023-03-30T16:51:25.539Z,7.50
2023-03-30T16:53:53.546Z,7.80
2023-03-30T16:56:22.022Z,8.20
2023-03-30T16:58:50.090Z,8.00
2023-03-30T17:01:18.232Z,8.60
2023-03-30T17:04:02.481Z,7.80
2023-03-30T17:06:31.639Z,9.30
2023-03-30T17:09:02.994Z,7.60
2023-03-30T17:11:31.231Z,7.20
2023-03-30T17:13:59.217Z,7.80
2023-03-30T17:16:30.416Z,9.00
2023-03-30T17:18:59.498Z,9.40
2023-03-30T17:21:27.552Z,8.60
2023-03-30T17:23:58.407Z,8.50
2023-03-30T17:26:26.960Z,8.70
2023-03-30T17:28:58.294Z,9.80
2023-03-30T17:31:26.585Z,11.60
2023-03-30T17:33:59.103Z,9.10
2023-03-30T17:36:27.912Z,9.20
2023-03-30T17:38:56.199Z,9.60
2023-03-30T17:41:24.434Z,9.20
2023-03-30T17:43:52.568Z,9.30
2023-03-30T17:46:20.670Z,9.50
2023-03-30T17:48:50.507Z,10.30
2023-03-30T17:51:18.503Z,16.10
2023-03-30T17:53:46.456Z,11.50
2023-03-30T17:56:14.525Z,9.90
2023-03-30T17:58:46.108Z,9.50
2023-03-30T18:01:20.253Z,9.40
2023-03-30T18:03:48.786Z,10.00
2023-03-30T18:06:17.702Z,10.50
2023-03-30T18:08:46.033Z,16.30
2023-03-30T18:11:14.564Z,10.10
2023-03-30T18:13:42.912Z,11.40
2023-03-30T18:16:12.587Z,9.70
2023-03-30T18:18:40.820Z,9.80
2023-03-30T18:21:10.769Z,9.50
2023-03-30T18:23:38.882Z,10.30
2023-03-30T18:26:11.829Z,10.20
2023-03-30T18:28:42.845Z,11.10
2023-03-30T18:31:11.350Z,10.80
2023-03-30T18:33:40.923Z,12.10
2023-03-30T18:36:11.950Z,10.40
2023-03-30T18:38:40.345Z,10.60
2023-03-30T18:41:12.838Z,10.40
2023-03-30T18:43:41.285Z,10.90
2023-03-30T18:46:12.784Z,10.70
2023-03-30T18:48:42.548Z,11.00
2023-03-30T18:51:11.557Z,11.00
2023-03-30T18:53:40.966Z,10.10
2023-03-30T18:56:12.927Z,10.90
2023-03-30T18:58:42.252Z,11.70
2023-03-30T19:01:13.192Z,10.60
2023-03-30T19:03:42.146Z,12.50
2023-03-30T19:06:15.809Z,12.20
2023-03-30T19:08:44.125Z,10.70
2023-03-30T19:11:17.431Z,11.80
2023-03-30T19:13:46.894Z,12.30
2023-03-30T19:16:21.545Z,11.00
2023-03-30T19:18:49.799Z,11.90
2023-03-30T19:21:18.243Z,12.60
2023-03-30T19:23:49.842Z,12.30
2023-03-30T19:26:20.331Z,12.50
2023-03-30T19:28:48.428Z,13.10
2023-03-30T19:31:25.499Z,12.40
2023-03-30T19:33:54.978Z,13.40
2023-03-30T19:36:25.207Z,13.70
2023-03-30T19:38:53.857Z,14.10
2023-03-30T19:41:22.712Z,13.70
2023-03-30T19:43:55.319Z,13.10
2023-03-30T19:46:23.841Z,13.50
2023-03-30T19:48:52.965Z,13.60
2023-03-30T19:51:21.244Z,13.70
2023-03-30T19:53:49.321Z,12.50
2023-03-30T19:56:17.743Z,13.90
2023-03-30T19:58:46.620Z,14.10
2023-03-30T20:01:15.148Z,12.80
2023-03-30T20:03:44.405Z,14.10
2023-03-30T20:06:13.438Z,14.00
2023-03-30T20:08:43.960Z,15.50
2023-03-30T20:11:12.296Z,14.20
2023-03-30T20:13:45.030Z,15.00
2023-03-30T20:16:19.437Z,13.50
2023-03-30T20:18:49.944Z,15.20
2023-03-30T20:21:19.351Z,14.20
2023-03-30T20:23:47.805Z,14.10
2023-03-30T20:26:18.845Z,13.10
2023-03-30T20:28:50.072Z,13.20
2023-03-30T20:31:18.767Z,13.80
2023-03-30T20:33:47.594Z,13.90
2023-03-30T20:36:16.314Z,13.90
2023-03-30T20:38:45.670Z,27.90
2023-03-30T20:41:14.558Z,17.00
2023-03-30T20:43:56.440Z,13.50
2023-03-30T20:46:34.904Z,13.20
2023-03-30T20:49:03.417Z,15.00
2023-03-30T20:51:32.052Z,14.60
2023-03-30T20:54:00.326Z,14.50
2023-03-30T20:56:28.418Z,14.40
2023-03-30T20:58:56.696Z,15.40
2023-03-30T21:01:28.621Z,14.60
2023-03-30T21:03:58.312Z,15.10
2023-03-30T21:06:29.112Z,13.20
2023-03-30T21:09:01.252Z,13.30
2023-03-30T21:11:32.956Z,15.90
2023-03-30T21:14:01.692Z,14.00
2023-03-30T21:16:29.905Z,15.00
2023-03-30T21:18:58.724Z,14.20
2023-03-30T21:21:28.178Z,13.30
2023-03-30T21:23:56.711Z,15.20
2023-03-30T21:26:25.689Z,15.30
2023-03-30T21:28:53.980Z,14.70
2023-03-30T21:31:22.251Z,13.60
2023-03-30T21:33:50.322Z,13.80
2023-03-30T21:36:18.569Z,14.80
2023-03-30T21:38:46.815Z,16.10
2023-03-30T21:41:16.305Z,15.30
2023-03-30T21:43:46.752Z,13.90
2023-03-30T21:46:17.282Z,13.10
2023-03-30T21:48:46.187Z,13.70
2023-03-30T21:51:16.830Z,11.90
2023-03-30T21:53:47.808Z,14.00
2023-03-30T21:56:16.895Z,12.70
2023-03-30T21:58:44.877Z,12.70
2023-03-30T22:01:13.133Z,12.20
2023-03-30T22:03:42.312Z,12.60
2023-03-30T22:06:12.628Z,12.60
2023-03-30T22:08:40.729Z,12.00
2023-03-30T22:11:11.568Z,12.10
2023-03-30T22:13:39.620Z,12.10
2023-03-30T22:16:12.003Z,11.90
2023-03-30T22:18:40.399Z,11.30
2023-03-30T22:21:11.633Z,11.10
2023-03-30T22:23:39.669Z,11.20
2023-03-30T22:26:08.083Z,9.60
2023-03-30T22:28:36.649Z,11.30
2023-03-30T22:31:07.786Z,10.10
2023-03-30T22:33:36.186Z,9.60
2023-03-30T22:36:06.533Z,9.50
2023-03-30T22:38:35.029Z,9.90
2023-03-30T22:41:07.350Z,9.60
2023-03-30T22:43:36.382Z,10.40
2023-03-30T22:46:05.271Z,9.50
2023-03-30T22:48:34.870Z,11.20
2023-03-30T22:51:03.424Z,9.40
2023-03-30T22:53:31.737Z,9.60
2023-03-30T22:56:00.344Z,10.30
2023-03-30T22:58:28.307Z,9.10
2023-03-30T23:01:01.228Z,9.10
2023-03-30T23:03:29.522Z,9.20
2023-03-30T23:06:00.202Z,9.10
2023-03-30T23:08:31.532Z,9.30
2023-03-30T23:11:04.233Z,9.10
2023-03-30T23:13:36.584Z,9.80
2023-03-30T23:16:05.685Z,9.60
2023-03-30T23:18:34.572Z,9.10
2023-03-30T23:21:05.580Z,10.10
2023-03-30T23:23:33.899Z,10.50
2023-03-30T23:26:07.489Z,10.30
2023-03-30T23:28:36.786Z,9.50
2023-03-30T23:31:08.523Z,9.80
2023-03-30T23:33:36.695Z,10.00
2023-03-30T23:36:06.096Z,10.40
2023-03-30T23:38:34.442Z,10.50
2023-03-30T23:41:02.477Z,10.20
2023-03-30T23:43:30.447Z,10.00
2023-03-30T23:45:58.607Z,11.10
2023-03-30T23:48:26.758Z,11.20
2023-03-30T23:50:55.746Z,9.80
2023-03-30T23:53:25.625Z,10.30
2023-03-30T23:55:53.852Z,11.40
2023-03-30T23:58:22.214Z,11.10
